createdAt,value
2019-04-22T00:01:40.088Z,18.90
2019-04-22T00:04:16.160Z,18.90
2019-04-22T00:07:03.112Z,18.80
2019-04-22T00:09:38.881Z,18.80
2019-04-22T00:12:13.810Z,18.80
2019-04-22T00:14:38.782Z,18.80
2019-04-22T00:17:18.228Z,18.80
2019-04-22T00:19:43.786Z,18.80
2019-04-22T00:22:18.629Z,18.80
2019-04-22T00:24:45.574Z,18.80
2019-04-22T00:27:20.295Z,18.80
2019-04-22T00:30:00.354Z,18.80
2019-04-22T00:32:32.282Z,18.80
2019-04-22T00:35:07.013Z,18.80
2019-04-22T00:40:09.092Z,18.80
2019-04-22T00:42:40.955Z,18.70
2019-04-22T00:45:11.862Z,18.80
2019-04-22T00:47:41.473Z,18.70
2019-04-22T00:50:20.376Z,18.70
2019-04-22T00:52:47.547Z,18.70
2019-04-22T00:55:21.415Z,18.70
2019-04-22T00:57:54.275Z,18.70
2019-04-22T01:00:27.697Z,18.70
2019-04-22T01:02:57.372Z,18.70
2019-04-22T01:05:30.528Z,18.70
2019-04-22T01:07:56.370Z,18.70
2019-04-22T01:10:31.830Z,18.70
2019-04-22T01:13:06.650Z,18.70
2019-04-22T01:15:36.814Z,18.70
2019-04-22T01:18:04.794Z,18.70
2019-04-22T01:21:02.145Z,18.70
2019-04-22T01:23:08.122Z,18.70
2019-04-22T01:25:39.236Z,18.70
2019-04-22T01:28:01.376Z,18.70
2019-04-22T01:30:27.917Z,18.70
2019-04-22T01:32:52.092Z,18.70
2019-04-22T01:35:32.103Z,18.60
2019-04-22T01:38:07.882Z,18.60
2019-04-22T01:40:55.084Z,18.60
2019-04-22T01:43:26.890Z,18.60
2019-04-22T01:45:56.091Z,18.60
2019-04-22T01:48:26.074Z,18.60
2019-04-22T01:50:50.082Z,18.60
2019-04-22T01:53:27.509Z,18.60
2019-04-22T01:56:02.033Z,18.60
2019-04-22T01:58:23.784Z,18.60
2019-04-22T02:01:18.840Z,18.60
2019-04-22T02:03:33.229Z,18.60
2019-04-22T02:05:59.333Z,18.60
2019-04-22T02:08:44.904Z,18.60
2019-04-22T02:11:07.706Z,18.60
2019-04-22T02:13:36.633Z,18.60
2019-04-22T02:16:17.928Z,18.60
2019-04-22T02:18:44.471Z,18.60
2019-04-22T02:21:07.280Z,18.50
2019-04-22T02:23:47.280Z,18.50
2019-04-22T02:26:23.790Z,18.50
2019-04-22T02:28:55.111Z,18.50
2019-04-22T02:31:25.604Z,18.50
2019-04-22T02:41:26.180Z,18.50
2019-04-22T02:46:49.380Z,18.50
2019-04-22T02:49:10.943Z,18.50
2019-04-22T02:54:22.296Z,18.50
2019-04-22T02:56:31.446Z,18.50
2019-04-22T03:04:18.460Z,18.50
2019-04-22T03:12:06.283Z,18.50
2019-04-22T03:14:13.280Z,18.40
2019-04-22T03:16:51.232Z,18.40
2019-04-22T03:26:52.336Z,18.40
2019-04-22T03:29:33.498Z,18.40
2019-04-22T03:42:07.449Z,18.40
2019-04-22T03:44:42.763Z,18.40
2019-04-22T03:49:49.616Z,18.40
2019-04-22T03:57:31.203Z,18.40
2019-04-22T03:59:43.967Z,18.40
2019-04-22T04:02:35.820Z,18.40
2019-04-22T04:04:39.352Z,18.40
2019-04-22T04:12:18.224Z,18.30
2019-04-22T04:22:33.884Z,18.30
2019-04-22T04:25:08.379Z,18.30
2019-04-22T04:37:45.053Z,18.30
2019-04-22T04:40:29.108Z,18.30
2019-04-22T04:42:46.392Z,18.30
2019-04-22T04:45:40.028Z,18.30
2019-04-22T04:58:10.139Z,18.30
2019-04-22T05:08:14.783Z,18.30
2019-04-22T05:10:49.749Z,18.30
2019-04-22T05:13:01.747Z,18.30
2019-04-22T05:18:27.020Z,18.30
2019-04-22T05:23:08.790Z,18.30
2019-04-22T05:25:33.819Z,18.30
2019-04-22T05:28:10.466Z,18.30
2019-04-22T05:30:58.979Z,18.30
2019-04-22T05:33:08.754Z,18.30
2019-04-22T05:36:06.059Z,18.30
2019-04-22T05:38:17.273Z,18.30
2019-04-22T05:40:40.760Z,18.30
2019-04-22T05:43:21.553Z,18.30
2019-04-22T05:45:52.683Z,18.30
2019-04-22T05:48:18.333Z,18.30
2019-04-22T05:50:56.424Z,18.30
2019-04-22T05:53:19.894Z,18.30
2019-04-22T05:55:58.513Z,18.30
2019-04-22T05:58:32.948Z,18.30
2019-04-22T06:03:46.111Z,18.30
2019-04-22T06:06:15.125Z,18.30
2019-04-22T06:08:48.921Z,18.30
2019-04-22T06:11:22.757Z,18.30
2019-04-22T06:13:46.850Z,18.30
2019-04-22T06:16:18.286Z,18.30
2019-04-22T06:18:52.781Z,18.30
2019-04-22T06:21:28.196Z,18.30
2019-04-22T06:24:07.733Z,18.30
2019-04-22T06:26:40.643Z,18.30
2019-04-22T06:29:03.291Z,18.30
2019-04-22T06:36:43.531Z,18.30
2019-04-22T06:39:10.544Z,18.30
2019-04-22T06:41:36.947Z,18.40
2019-04-22T06:44:11.051Z,18.30
2019-04-22T06:46:41.870Z,18.30
2019-04-22T06:49:17.097Z,18.30
2019-04-22T06:51:46.789Z,18.40
2019-04-22T06:54:21.719Z,18.30
2019-04-22T06:56:53.421Z,18.40
2019-04-22T06:59:18.306Z,18.40
2019-04-22T07:01:58.649Z,18.40
2019-04-22T07:04:23.329Z,18.40
2019-04-22T07:09:38.597Z,18.40
2019-04-22T07:11:58.796Z,18.40
2019-04-22T07:14:28.610Z,18.40
2019-04-22T07:17:02.985Z,18.40
2019-04-22T07:19:36.119Z,18.40
2019-04-22T07:22:03.290Z,18.40
2019-04-22T07:27:12.918Z,18.40
2019-04-22T07:29:44.641Z,18.40
2019-04-22T07:32:07.778Z,18.40
2019-04-22T07:34:47.336Z,18.40
2019-04-22T07:37:31.769Z,18.40
2019-04-22T07:39:45.389Z,18.40
2019-04-22T07:42:27.874Z,18.40
2019-04-22T07:44:54.855Z,18.40
2019-04-22T07:47:27.467Z,18.40
2019-04-22T07:50:18.383Z,18.40
2019-04-22T07:54:56.840Z,18.40
2019-04-22T07:57:52.321Z,18.40
2019-04-22T08:00:04.117Z,18.40
2019-04-22T08:02:32.707Z,18.40
2019-04-22T08:10:17.219Z,18.40
2019-04-22T08:12:39.219Z,18.40
2019-04-22T08:15:06.267Z,18.40
2019-04-22T08:20:11.120Z,18.40
2019-04-22T08:22:42.876Z,18.40
2019-04-22T08:25:10.352Z,18.40
2019-04-22T08:27:46.784Z,18.40
2019-04-22T08:30:23.515Z,18.40
2019-04-22T08:32:48.935Z,18.40
2019-04-22T08:35:37.565Z,18.40
2019-04-22T08:40:32.539Z,18.40
2019-04-22T08:47:54.762Z,18.40
2019-04-22T08:50:33.511Z,18.40
2019-04-22T08:53:06.429Z,18.40
2019-04-22T08:55:40.437Z,18.40
2019-04-22T08:58:21.365Z,18.40
2019-04-22T09:00:44.291Z,18.40
2019-04-22T09:03:11.029Z,18.40
2019-04-22T09:05:55.375Z,18.40
2019-04-22T09:08:19.358Z,18.40
2019-04-22T09:10:48.650Z,18.40
2019-04-22T09:13:22.197Z,18.40
2019-04-22T09:15:48.803Z,18.40
2019-04-22T09:18:31.145Z,18.40
2019-04-22T09:21:08.960Z,18.40
2019-04-22T09:23:30.413Z,18.40
2019-04-22T09:25:53.305Z,18.40
2019-04-22T09:28:30.648Z,18.40
2019-04-22T09:31:01.829Z,18.40
2019-04-22T09:33:34.913Z,18.40
2019-04-22T09:36:12.919Z,18.40
2019-04-22T09:38:38.138Z,18.40
2019-04-22T09:41:06.521Z,18.40
2019-04-22T09:43:40.139Z,18.40
2019-04-22T09:46:09.030Z,18.40
2019-04-22T09:48:44.121Z,18.40
2019-04-22T09:51:08.578Z,18.40
2019-04-22T09:53:54.829Z,18.40
2019-04-22T09:56:18.098Z,18.50
2019-04-22T10:04:00.958Z,18.50
2019-04-22T10:09:13.032Z,18.50
2019-04-22T10:11:32.670Z,18.50
2019-04-22T10:14:01.106Z,18.50
2019-04-22T10:19:04.682Z,18.50
2019-04-22T10:21:40.525Z,18.50
2019-04-22T10:26:39.811Z,18.50
2019-04-22T10:29:41.590Z,18.50
2019-04-22T10:34:19.168Z,18.50
2019-04-22T10:36:44.030Z,18.50
2019-04-22T10:39:12.674Z,18.50
2019-04-22T10:41:42.398Z,18.50
2019-04-22T10:44:13.017Z,18.50
2019-04-22T10:46:44.271Z,18.50
2019-04-22T10:49:13.896Z,18.50
2019-04-22T10:51:44.503Z,18.50
2019-04-22T10:54:15.522Z,18.50
2019-04-22T10:56:45.267Z,18.50
2019-04-22T10:59:16.329Z,18.50
2019-04-22T11:01:46.533Z,18.50
2019-04-22T11:04:17.434Z,18.50
2019-04-22T11:06:53.108Z,18.50
2019-04-22T11:09:18.481Z,18.50
2019-04-22T11:11:59.675Z,18.50
2019-04-22T11:14:23.147Z,18.50
2019-04-22T11:16:53.342Z,18.60
2019-04-22T11:19:25.670Z,18.50
2019-04-22T11:22:03.793Z,18.60
2019-04-22T11:24:26.749Z,18.60
2019-04-22T11:26:57.030Z,18.60
2019-04-22T11:29:27.874Z,18.60
2019-04-22T11:32:00.131Z,18.60
2019-04-22T11:34:30.981Z,18.60
2019-04-22T11:37:01.054Z,18.60
2019-04-22T11:39:34.444Z,18.60
2019-04-22T11:42:02.397Z,18.60
2019-04-22T11:44:32.965Z,18.60
2019-04-22T11:47:05.352Z,18.60
2019-04-22T11:49:36.120Z,18.60
2019-04-22T11:52:08.704Z,18.60
2019-04-22T11:54:37.113Z,18.60
2019-04-22T11:57:07.456Z,18.60
2019-04-22T11:59:38.222Z,18.60
2019-04-22T12:02:08.921Z,18.60
2019-04-22T12:04:40.132Z,18.60
2019-04-22T12:07:11.081Z,18.60
2019-04-22T12:09:41.844Z,18.60
2019-04-22T12:12:15.936Z,18.60
2019-04-22T12:14:47.993Z,18.60
2019-04-22T12:17:18.049Z,18.60
2019-04-22T12:19:52.639Z,18.60
2019-04-22T12:22:23.004Z,18.60
2019-04-22T12:24:53.074Z,18.60
2019-04-22T12:27:26.250Z,18.60
2019-04-22T12:29:58.779Z,18.60
2019-04-22T12:32:29.645Z,18.60
2019-04-22T12:35:05.179Z,18.60
2019-04-22T12:37:43.534Z,18.60
2019-04-22T12:40:08.660Z,18.60
2019-04-22T12:42:39.400Z,18.70
2019-04-22T12:45:09.940Z,18.70
2019-04-22T12:47:40.291Z,18.60
2019-04-22T12:50:18.632Z,18.70
2019-04-22T12:52:50.519Z,18.60
2019-04-22T12:55:14.231Z,18.70
2019-04-22T12:57:43.735Z,18.70
2019-04-22T13:00:13.730Z,18.70
2019-04-22T13:02:43.372Z,18.70
2019-04-22T13:05:14.203Z,18.70
2019-04-22T13:07:44.215Z,18.70
2019-04-22T13:10:15.611Z,18.70
2019-04-22T13:12:51.094Z,18.70
2019-04-22T13:15:23.882Z,18.70
2019-04-22T13:18:04.428Z,18.70
2019-04-22T13:20:26.064Z,18.70
2019-04-22T13:22:57.027Z,18.70
2019-04-22T13:25:28.838Z,18.70
2019-04-22T13:27:58.038Z,18.70
2019-04-22T13:30:28.401Z,18.70
2019-04-22T13:32:58.750Z,18.70
2019-04-22T13:35:29.787Z,18.70
2019-04-22T13:38:01.206Z,18.70
2019-04-22T13:40:30.940Z,18.70
2019-04-22T13:43:00.797Z,18.70
2019-04-22T13:45:31.813Z,18.70
2019-04-22T13:48:16.642Z,18.70
2019-04-22T13:51:13.230Z,18.70
2019-04-22T13:53:44.852Z,18.70
2019-04-22T13:55:59.274Z,18.70
2019-04-22T13:58:17.157Z,18.70
2019-04-22T14:00:38.459Z,18.70
2019-04-22T14:03:26.642Z,18.70
2019-04-22T14:05:56.769Z,18.70
2019-04-22T14:08:27.129Z,18.70
2019-04-22T14:11:04.277Z,18.80
2019-04-22T14:13:27.961Z,18.80
2019-04-22T14:15:59.304Z,18.80
2019-04-22T14:18:28.942Z,18.80
2019-04-22T14:20:58.756Z,18.80
2019-04-22T14:23:28.680Z,18.80
2019-04-22T14:25:59.136Z,18.80
2019-04-22T14:28:30.729Z,18.80
2019-04-22T14:31:00.381Z,18.80
2019-04-22T14:33:30.352Z,18.80
2019-04-22T14:36:00.530Z,18.80
2019-04-22T14:38:30.429Z,18.80
2019-04-22T14:41:03.136Z,18.80
2019-04-22T14:44:43.035Z,18.80
2019-04-22T14:46:30.151Z,18.80
2019-04-22T14:49:01.342Z,18.80
2019-04-22T14:51:22.362Z,18.80
2019-04-22T14:53:55.549Z,18.80
2019-04-22T14:56:10.561Z,18.80
2019-04-22T14:58:40.771Z,18.80
2019-04-22T15:01:12.831Z,18.80
2019-04-22T15:03:44.817Z,18.80
2019-04-22T15:06:14.114Z,18.80
2019-04-22T15:08:45.115Z,18.80
2019-04-22T15:11:15.278Z,18.80
2019-04-22T15:13:45.209Z,18.90
2019-04-22T15:16:40.146Z,18.90
2019-04-22T15:19:17.991Z,18.90
2019-04-22T15:21:47.586Z,18.90
2019-04-22T15:24:27.588Z,18.90
2019-04-22T15:26:58.611Z,18.90
2019-04-22T15:29:29.606Z,18.90
2019-04-22T15:31:59.937Z,18.90
2019-04-22T15:34:30.559Z,18.90
2019-04-22T15:37:00.302Z,18.90
2019-04-22T15:39:31.308Z,18.90
2019-04-22T15:42:11.752Z,18.90
2019-04-22T15:44:33.838Z,18.90
2019-04-22T15:47:04.872Z,18.90
2019-04-22T15:49:36.024Z,18.90
2019-04-22T15:52:06.611Z,18.90
2019-04-22T15:54:37.663Z,18.90
2019-04-22T15:57:08.747Z,19.00
2019-04-22T15:59:53.803Z,19.00
2019-04-22T16:02:11.715Z,19.00
2019-04-22T16:04:41.173Z,19.00
2019-04-22T16:07:10.885Z,19.00
2019-04-22T16:09:41.642Z,19.00
2019-04-22T16:12:19.102Z,19.00
2019-04-22T16:14:47.874Z,19.00
2019-04-22T16:17:14.871Z,19.00
2019-04-22T16:19:45.178Z,19.00
2019-04-22T16:22:19.130Z,19.00
2019-04-22T16:25:09.010Z,19.00
2019-04-22T16:27:38.540Z,19.00
2019-04-22T16:30:09.592Z,19.00
2019-04-22T16:32:39.409Z,19.00
2019-04-22T16:35:10.438Z,19.00
2019-04-22T16:37:41.029Z,19.00
2019-04-22T16:40:16.610Z,19.00
2019-04-22T16:42:54.547Z,19.00
2019-04-22T16:45:17.896Z,19.00
2019-04-22T16:47:51.467Z,19.00
2019-04-22T16:50:21.004Z,19.00
2019-04-22T16:52:50.547Z,19.00
2019-04-22T16:55:21.056Z,19.00
2019-04-22T16:57:50.813Z,19.00
2019-04-22T17:00:20.647Z,19.00
2019-04-22T17:03:00.718Z,19.00
2019-04-22T17:05:49.757Z,19.00
2019-04-22T17:08:20.800Z,19.10
2019-04-22T17:10:51.644Z,19.00
2019-04-22T17:13:25.390Z,19.00
2019-04-22T17:15:53.936Z,19.00
2019-04-22T17:18:25.354Z,19.00
2019-04-22T17:20:55.064Z,19.10
2019-04-22T17:23:25.524Z,19.00
2019-04-22T17:25:56.503Z,19.00
2019-04-22T17:28:26.171Z,19.00
2019-04-22T17:30:55.659Z,19.00
2019-04-22T17:33:26.319Z,19.00
2019-04-22T17:35:57.021Z,19.00
2019-04-22T17:38:36.273Z,19.00
2019-04-22T17:41:11.646Z,19.00
2019-04-22T17:43:57.345Z,19.00
2019-04-22T17:46:37.566Z,19.00
2019-04-22T17:49:26.759Z,19.00
2019-04-22T17:52:15.675Z,19.00
2019-04-22T17:54:38.411Z,19.00
2019-04-22T17:57:13.955Z,19.00
2019-04-22T17:59:38.125Z,19.00
2019-04-22T18:02:07.032Z,19.00
2019-04-22T18:04:40.070Z,19.00
2019-04-22T18:07:30.927Z,19.00
2019-04-22T18:10:16.184Z,19.00
2019-04-22T18:14:59.142Z,19.00
2019-04-22T18:17:32.394Z,19.00
2019-04-22T18:19:54.625Z,19.00
2019-04-22T18:22:21.623Z,19.00
2019-04-22T18:24:54.108Z,19.00
2019-04-22T18:30:01.619Z,19.00
2019-04-22T18:32:37.148Z,19.00
2019-04-22T18:35:00.900Z,19.00
2019-04-22T18:37:40.197Z,19.00
2019-04-22T18:40:11.705Z,19.00
2019-04-22T18:42:48.803Z,19.00
2019-04-22T18:45:34.489Z,19.00
2019-04-22T18:47:39.018Z,19.00
2019-04-22T18:50:08.589Z,19.00
2019-04-22T18:53:03.677Z,19.00
2019-04-22T18:55:30.858Z,19.00
2019-04-22T18:58:02.799Z,19.00
2019-04-22T19:00:21.502Z,19.00
2019-04-22T19:02:59.351Z,19.00
2019-04-22T19:05:39.917Z,19.00
2019-04-22T19:15:54.218Z,19.00
2019-04-22T19:18:24.218Z,18.90
2019-04-22T19:20:57.738Z,18.90
2019-04-22T19:23:24.228Z,18.90
2019-04-22T19:25:51.168Z,18.90
2019-04-22T19:28:35.787Z,18.90
2019-04-22T19:31:05.587Z,18.90
2019-04-22T19:33:29.045Z,18.90
2019-04-22T19:36:01.507Z,18.90
2019-04-22T19:38:20.624Z,18.90
2019-04-22T19:41:08.657Z,18.90
2019-04-22T19:43:35.104Z,18.90
2019-04-22T19:46:01.989Z,18.90
2019-04-22T19:48:39.319Z,18.90
2019-04-22T19:51:11.108Z,18.90
2019-04-22T19:53:41.803Z,18.90
2019-04-22T19:56:05.547Z,18.90
2019-04-22T19:58:37.279Z,18.90
2019-04-22T20:01:27.268Z,18.90
2019-04-22T20:04:26.613Z,18.90
2019-04-22T20:06:52.841Z,18.90
2019-04-22T20:09:26.957Z,18.90
2019-04-22T20:11:49.557Z,18.90
2019-04-22T20:14:24.860Z,18.90
2019-04-22T20:16:48.717Z,18.90
2019-04-22T20:19:31.875Z,18.90
2019-04-22T20:21:59.663Z,18.90
2019-04-22T20:24:12.940Z,18.90
2019-04-22T20:29:35.102Z,18.80
2019-04-22T20:32:05.379Z,18.80
2019-04-22T20:34:47.454Z,18.80
2019-04-22T20:37:23.627Z,18.80
2019-04-22T20:40:02.419Z,18.80
2019-04-22T20:42:33.716Z,18.80
2019-04-22T20:44:51.766Z,18.80
2019-04-22T20:47:16.612Z,18.80
2019-04-22T20:49:57.247Z,18.80
2019-04-22T20:52:27.349Z,18.80
2019-04-22T20:54:49.360Z,18.80
2019-04-22T20:57:25.491Z,18.80
2019-04-22T20:59:52.216Z,18.80
2019-04-22T21:02:25.328Z,18.80
2019-04-22T21:04:53.958Z,18.80
2019-04-22T21:07:29.621Z,18.80
2019-04-22T21:10:04.289Z,18.80
2019-04-22T21:12:29.214Z,18.80
2019-04-22T21:15:12.585Z,18.80
2019-04-22T21:17:38.740Z,18.80
2019-04-22T21:20:20.232Z,18.80
2019-04-22T21:22:44.641Z,18.80
2019-04-22T21:25:06.102Z,18.80
2019-04-22T21:27:46.720Z,18.80
2019-04-22T21:30:10.759Z,18.80
2019-04-22T21:32:45.079Z,18.80
2019-04-22T21:35:31.958Z,18.80
2019-04-22T21:38:00.413Z,18.70
2019-04-22T21:40:23.650Z,18.70
2019-04-22T21:43:08.919Z,18.70
2019-04-22T21:45:26.507Z,18.70
2019-04-22T21:48:17.632Z,18.70
2019-04-22T21:50:54.331Z,18.70
2019-04-22T21:53:08.611Z,18.70
2019-04-22T21:55:37.398Z,18.70
2019-04-22T21:58:18.039Z,18.70
2019-04-22T22:01:24.041Z,18.70
2019-04-22T22:03:55.539Z,18.70
2019-04-22T22:06:13.880Z,18.70
2019-04-22T22:08:59.669Z,18.70
2019-04-22T22:11:24.480Z,18.70
2019-04-22T22:13:56.432Z,18.70
2019-04-22T22:16:25.273Z,18.70
2019-04-22T22:19:00.811Z,18.70
2019-04-22T22:21:45.788Z,18.70
2019-04-22T22:24:05.635Z,18.70
2019-04-22T22:26:35.278Z,18.70
2019-04-22T22:29:14.054Z,18.70
2019-04-22T22:31:44.460Z,18.70
2019-04-22T22:34:13.717Z,18.70
2019-04-22T22:36:36.858Z,18.70
2019-04-22T22:39:04.020Z,18.70
2019-04-22T22:41:23.858Z,18.70
2019-04-22T22:44:03.229Z,18.70
2019-04-22T22:46:34.111Z,18.70
2019-04-22T22:49:20.343Z,18.70
2019-04-22T22:51:53.236Z,18.60
2019-04-22T22:54:18.139Z,18.60
2019-04-22T22:57:11.979Z,18.60
2019-04-22T22:59:23.734Z,18.60
2019-04-22T23:01:50.558Z,18.60
2019-04-22T23:04:31.181Z,18.60
2019-04-22T23:06:56.178Z,18.60
2019-04-22T23:09:28.433Z,18.60
2019-04-22T23:12:17.493Z,18.60
2019-04-22T23:14:35.016Z,18.60
2019-04-22T23:16:49.478Z,18.60
2019-04-22T23:19:13.669Z,18.60
2019-04-22T23:21:46.834Z,18.60
2019-04-22T23:24:50.594Z,18.60
2019-04-22T23:27:20.867Z,18.60
2019-04-22T23:30:01.498Z,18.60
2019-04-22T23:32:31.922Z,18.60
2019-04-22T23:35:24.226Z,18.60
2019-04-22T23:37:52.622Z,18.60
2019-04-22T23:40:32.751Z,18.60
2019-04-22T23:43:03.878Z,18.60
2019-04-22T23:45:34.948Z,18.60
2019-04-22T23:47:49.573Z,18.60
2019-04-22T23:50:31.197Z,18.60
2019-04-22T23:53:02.119Z,18.60
2019-04-22T23:55:37.127Z,18.60
2019-04-22T23:58:07.689Z,18.60
